createdAt,value
2019-04-22T00:01:40.492Z,9.25
2019-04-22T00:04:15.539Z,9.26
2019-04-22T00:07:03.278Z,9.18
2019-04-22T00:09:35.172Z,9.11
2019-04-22T00:12:07.428Z,9.09
2019-04-22T00:14:30.907Z,8.96
2019-04-22T00:17:11.316Z,8.88
2019-04-22T00:22:02.970Z,8.95
2019-04-22T00:24:25.582Z,9.05
2019-04-22T00:26:59.585Z,8.93
2019-04-22T00:29:42.334Z,8.97
2019-04-22T00:32:12.757Z,8.94
2019-04-22T00:34:42.570Z,8.78
2019-04-22T00:37:19.798Z,8.78
2019-04-22T00:42:16.452Z,8.81
2019-04-22T00:47:21.449Z,8.73
2019-04-22T00:52:12.456Z,8.63
2019-04-22T00:54:48.977Z,8.51
2019-04-22T00:57:12.329Z,8.47
2019-04-22T00:59:37.414Z,8.32
2019-04-22T01:02:06.798Z,8.47
2019-04-22T01:04:43.736Z,8.47
2019-04-22T01:07:05.098Z,8.52
2019-04-22T01:09:38.877Z,8.39
2019-04-22T01:12:12.104Z,8.56
2019-04-22T01:14:37.831Z,8.59
2019-04-22T01:16:59.689Z,8.61
2019-04-22T01:19:40.348Z,8.61
2019-04-22T01:22:11.888Z,8.61
2019-04-22T01:24:33.611Z,8.55
2019-04-22T01:26:53.806Z,8.44
2019-04-22T01:29:20.225Z,8.42
2019-04-22T01:31:40.002Z,8.41
2019-04-22T01:34:23.420Z,8.39
2019-04-22T01:36:55.452Z,8.39
2019-04-22T01:39:36.291Z,8.37
2019-04-22T01:42:05.687Z,8.21
2019-04-22T01:44:33.281Z,8.26
2019-04-22T01:47:00.256Z,8.39
2019-04-22T01:49:27.670Z,8.40
2019-04-22T01:52:11.539Z,8.40
2019-04-22T01:57:02.184Z,8.21
2019-04-22T01:59:15.629Z,8.20
2019-04-22T02:02:00.550Z,8.21
2019-04-22T02:04:30.404Z,8.21
2019-04-22T02:06:57.215Z,8.13
2019-04-22T02:14:27.608Z,7.79
2019-04-22T02:16:56.759Z,7.65
2019-04-22T02:19:22.865Z,7.63
2019-04-22T02:21:48.549Z,7.80
2019-04-22T02:24:30.139Z,7.80
2019-04-22T02:26:51.924Z,7.79
2019-04-22T02:29:27.039Z,7.87
2019-04-22T02:31:59.615Z,7.84
2019-04-22T02:34:25.130Z,7.91
2019-04-22T02:37:04.866Z,7.86
2019-04-22T02:39:20.296Z,7.77
2019-04-22T02:41:49.589Z,7.69
2019-04-22T02:44:20.374Z,7.71
2019-04-22T02:51:40.340Z,7.47
2019-04-22T02:54:40.669Z,7.42
2019-04-22T03:01:44.758Z,7.19
2019-04-22T03:04:10.966Z,7.44
2019-04-22T03:09:16.392Z,7.63
2019-04-22T03:14:08.748Z,7.69
2019-04-22T03:16:40.770Z,7.56
2019-04-22T03:24:17.560Z,7.53
2019-04-22T03:29:11.175Z,7.50
2019-04-22T03:32:36.123Z,7.59
2019-04-22T03:49:49.623Z,7.78
2019-04-22T03:52:04.972Z,7.84
2019-04-22T03:59:39.123Z,7.70
2019-04-22T04:01:59.324Z,7.60
2019-04-22T04:09:23.912Z,7.30
2019-04-22T04:16:47.752Z,7.35
2019-04-22T04:19:34.153Z,7.32
2019-04-22T04:21:41.849Z,7.31
2019-04-22T04:24:39.522Z,7.49
2019-04-22T04:29:26.009Z,7.53
2019-04-22T04:36:35.567Z,7.65
2019-04-22T04:41:54.328Z,7.70
2019-04-22T04:44:22.735Z,7.69
2019-04-22T04:46:47.511Z,7.82
2019-04-22T04:51:33.678Z,7.94
2019-04-22T04:54:05.665Z,7.87
2019-04-22T04:56:35.914Z,7.82
2019-04-22T05:06:40.021Z,7.97
2019-04-22T05:11:24.781Z,8.17
2019-04-22T05:18:52.769Z,8.28
2019-04-22T05:23:43.887Z,8.68
2019-04-22T05:26:12.559Z,9.07
2019-04-22T05:28:39.757Z,9.69
2019-04-22T05:31:08.626Z,9.69
2019-04-22T05:33:34.903Z,9.99
2019-04-22T05:36:10.167Z,10.04
2019-04-22T05:38:42.782Z,10.39
2019-04-22T05:41:02.770Z,10.62
2019-04-22T05:43:34.343Z,10.57
2019-04-22T05:46:00.751Z,10.93
2019-04-22T05:48:33.128Z,10.97
2019-04-22T05:50:56.450Z,11.18
2019-04-22T05:53:25.505Z,11.44
2019-04-22T05:55:53.902Z,11.54
2019-04-22T05:58:31.196Z,11.68
2019-04-22T06:01:34.361Z,12.02
2019-04-22T06:03:39.008Z,11.88
2019-04-22T06:06:07.785Z,12.03
2019-04-22T06:08:29.250Z,12.41
2019-04-22T06:11:08.191Z,12.45
2019-04-22T06:13:28.068Z,12.53
2019-04-22T06:15:59.008Z,12.98
2019-04-22T06:18:34.829Z,13.05
2019-04-22T06:21:09.389Z,13.34
2019-04-22T06:23:34.628Z,13.39
2019-04-22T06:26:19.437Z,13.84
2019-04-22T06:28:35.285Z,14.41
2019-04-22T06:31:03.729Z,14.72
2019-04-22T06:33:30.270Z,14.95
2019-04-22T06:35:58.999Z,15.56
2019-04-22T06:41:00.416Z,15.92
2019-04-22T06:43:22.424Z,15.58
2019-04-22T06:45:45.264Z,15.27
2019-04-22T06:48:27.941Z,16.10
2019-04-22T06:50:50.701Z,15.45
2019-04-22T06:53:17.563Z,15.61
2019-04-22T06:58:15.300Z,15.87
2019-04-22T07:00:49.426Z,17.47
2019-04-22T07:05:46.343Z,17.89
2019-04-22T07:09:02.447Z,17.92
2019-04-22T07:13:21.200Z,18.47
2019-04-22T07:15:50.370Z,18.83
2019-04-22T07:18:18.014Z,18.65
2019-04-22T07:20:44.312Z,19.31
2019-04-22T07:23:15.514Z,19.23
2019-04-22T07:25:40.760Z,18.09
2019-04-22T07:28:14.240Z,18.61
2019-04-22T07:30:41.090Z,19.66
2019-04-22T07:35:50.617Z,19.92
2019-04-22T07:38:04.384Z,19.08
2019-04-22T07:40:40.356Z,18.81
2019-04-22T07:43:09.437Z,19.87
2019-04-22T07:48:11.221Z,19.92
2019-04-22T07:50:42.756Z,19.90
2019-04-22T07:53:01.019Z,19.87
2019-04-22T07:55:30.581Z,19.10
2019-04-22T07:58:02.355Z,19.53
2019-04-22T08:00:29.142Z,19.56
2019-04-22T08:03:09.837Z,20.04
2019-04-22T08:05:32.942Z,20.03
2019-04-22T08:08:11.510Z,20.83
2019-04-22T08:13:01.811Z,21.65
2019-04-22T08:15:34.999Z,21.14
2019-04-22T08:18:20.282Z,21.31
2019-04-22T08:20:37.221Z,21.99
2019-04-22T08:23:04.673Z,22.13
2019-04-22T08:25:34.869Z,22.35
2019-04-22T08:28:03.310Z,21.94
2019-04-22T08:30:33.784Z,22.27
2019-04-22T08:33:00.686Z,22.98
2019-04-22T08:35:49.808Z,22.11
2019-04-22T08:38:02.442Z,21.52
2019-04-22T08:43:05.293Z,22.52
2019-04-22T08:47:59.075Z,22.13
2019-04-22T08:50:26.752Z,22.78
2019-04-22T08:53:00.604Z,22.62
2019-04-22T08:55:24.609Z,23.21
2019-04-22T08:58:08.384Z,23.43
2019-04-22T09:00:21.523Z,23.64
2019-04-22T09:02:53.918Z,23.79
2019-04-22T09:05:37.483Z,24.27
2019-04-22T09:07:46.551Z,23.50
2019-04-22T09:10:17.159Z,24.44
2019-04-22T09:12:56.928Z,24.01
2019-04-22T09:15:29.796Z,24.24
2019-04-22T09:17:59.207Z,23.60
2019-04-22T09:20:20.417Z,24.21
2019-04-22T09:22:57.033Z,23.41
2019-04-22T09:25:19.735Z,22.20
2019-04-22T09:30:20.308Z,22.05
2019-04-22T09:32:45.500Z,23.21
2019-04-22T09:35:09.678Z,24.09
2019-04-22T09:37:48.137Z,23.27
2019-04-22T09:40:20.270Z,24.91
2019-04-22T09:42:45.765Z,24.55
2019-04-22T09:45:10.140Z,25.36
2019-04-22T09:50:09.798Z,24.87
2019-04-22T09:52:43.747Z,24.21
2019-04-22T09:57:51.029Z,23.83
2019-04-22T10:00:11.019Z,24.99
2019-04-22T10:02:41.234Z,25.19
2019-04-22T10:05:07.874Z,23.87
2019-04-22T10:07:39.520Z,25.64
2019-04-22T10:15:00.268Z,24.62
2019-04-22T10:17:32.002Z,24.21
2019-04-22T10:20:01.117Z,25.92
2019-04-22T10:22:33.822Z,24.65
2019-04-22T10:25:01.925Z,24.79
2019-04-22T10:27:26.299Z,24.77
2019-04-22T10:29:59.573Z,25.05
2019-04-22T10:32:20.495Z,26.23
2019-04-22T10:34:40.896Z,23.94
2019-04-22T10:37:06.389Z,24.25
2019-04-22T10:39:41.111Z,25.03
2019-04-22T10:42:00.781Z,25.08
2019-04-22T10:44:28.898Z,24.75
2019-04-22T10:46:56.147Z,26.09
2019-04-22T10:49:22.814Z,24.59
2019-04-22T10:51:50.762Z,25.13
2019-04-22T10:54:17.868Z,25.57
2019-04-22T10:56:45.233Z,25.62
2019-04-22T10:59:14.421Z,26.26
2019-04-22T11:01:42.308Z,25.08
2019-04-22T11:04:11.207Z,26.65
2019-04-22T11:06:44.810Z,26.06
2019-04-22T11:09:08.697Z,24.59
2019-04-22T11:11:50.185Z,26.47
2019-04-22T11:14:10.656Z,24.61
2019-04-22T11:16:39.495Z,25.39
2019-04-22T11:19:07.747Z,24.41
2019-04-22T11:21:35.955Z,25.61
2019-04-22T11:24:03.032Z,25.04
2019-04-22T11:26:32.124Z,25.54
2019-04-22T11:29:01.468Z,25.04
2019-04-22T11:31:28.439Z,26.07
2019-04-22T11:33:56.587Z,25.91
2019-04-22T11:36:25.710Z,26.91
2019-04-22T11:38:59.587Z,24.73
2019-04-22T11:41:21.683Z,25.10
2019-04-22T11:43:49.400Z,24.60
2019-04-22T11:46:17.636Z,25.86
2019-04-22T11:48:45.588Z,25.35
2019-04-22T11:51:14.088Z,25.05
2019-04-22T11:53:40.988Z,26.11
2019-04-22T11:56:18.991Z,25.53
2019-04-22T11:58:46.965Z,25.44
2019-04-22T12:01:14.842Z,24.65
2019-04-22T12:03:42.067Z,26.36
2019-04-22T12:06:10.414Z,26.03
2019-04-22T12:08:39.649Z,25.82
2019-04-22T12:11:11.593Z,26.04
2019-04-22T12:14:04.217Z,25.34
2019-04-22T12:16:31.967Z,26.32
2019-04-22T12:19:05.239Z,26.06
2019-04-22T12:21:32.999Z,26.10
2019-04-22T12:24:01.014Z,25.75
2019-04-22T12:26:34.445Z,25.86
2019-04-22T12:29:02.790Z,26.61
2019-04-22T12:31:29.613Z,27.82
2019-04-22T12:33:57.319Z,26.81
2019-04-22T12:36:24.616Z,28.36
2019-04-22T12:38:51.648Z,27.20
2019-04-22T12:41:19.750Z,25.19
2019-04-22T12:43:49.276Z,24.87
2019-04-22T12:46:16.475Z,24.67
2019-04-22T12:48:43.413Z,23.87
2019-04-22T12:51:11.055Z,24.63
2019-04-22T12:53:38.099Z,24.55
2019-04-22T12:56:05.130Z,23.99
2019-04-22T12:58:31.817Z,24.19
2019-04-22T13:00:59.083Z,23.56
2019-04-22T13:03:26.662Z,23.41
2019-04-22T13:05:53.920Z,22.99
2019-04-22T13:08:20.922Z,21.87
2019-04-22T13:10:55.276Z,22.02
2019-04-22T13:13:16.339Z,22.17
2019-04-22T13:15:44.513Z,21.86
2019-04-22T13:18:19.175Z,21.33
2019-04-22T13:20:40.184Z,21.23
2019-04-22T13:23:07.818Z,21.10
2019-04-22T13:25:35.051Z,20.98
2019-04-22T13:28:03.013Z,20.96
2019-04-22T13:30:30.471Z,21.19
2019-04-22T13:32:58.647Z,21.17
2019-04-22T13:35:26.635Z,20.93
2019-04-22T13:37:54.972Z,21.29
2019-04-22T13:40:23.351Z,20.76
2019-04-22T13:42:51.501Z,20.58
2019-04-22T13:45:20.013Z,20.68
2019-04-22T13:48:06.866Z,20.90
2019-04-22T13:50:49.538Z,20.98
2019-04-22T13:53:30.105Z,20.94
2019-04-22T13:55:48.185Z,20.61
2019-04-22T13:58:01.124Z,20.94
2019-04-22T14:00:22.437Z,21.11
2019-04-22T14:03:08.918Z,21.23
2019-04-22T14:05:37.103Z,20.92
2019-04-22T14:08:04.834Z,20.47
2019-04-22T14:10:34.456Z,20.76
2019-04-22T14:13:02.021Z,20.87
2019-04-22T14:15:29.892Z,20.78
2019-04-22T14:17:56.865Z,21.22
2019-04-22T14:20:25.842Z,20.97
2019-04-22T14:22:59.281Z,20.39
2019-04-22T14:25:26.475Z,20.82
2019-04-22T14:28:01.733Z,20.48
2019-04-22T14:30:22.280Z,20.67
2019-04-22T14:32:49.147Z,20.62
2019-04-22T14:35:18.960Z,20.45
2019-04-22T14:37:46.095Z,20.05
2019-04-22T14:40:14.493Z,20.25
2019-04-22T14:43:00.606Z,20.84
2019-04-22T14:45:41.785Z,20.88
2019-04-22T14:48:07.736Z,20.50
2019-04-22T14:50:30.619Z,20.35
2019-04-22T14:53:01.001Z,20.30
2019-04-22T14:55:15.649Z,20.62
2019-04-22T14:57:38.324Z,20.24
2019-04-22T15:00:08.114Z,20.03
2019-04-22T15:02:37.541Z,19.98
2019-04-22T15:05:05.950Z,20.31
2019-04-22T15:07:32.997Z,20.02
2019-04-22T15:09:59.993Z,20.08
2019-04-22T15:12:36.741Z,20.07
2019-04-22T15:14:59.664Z,19.90
2019-04-22T15:17:33.193Z,19.84
2019-04-22T15:20:09.916Z,19.95
2019-04-22T15:22:44.314Z,19.65
2019-04-22T15:25:14.629Z,19.82
2019-04-22T15:27:41.799Z,19.75
2019-04-22T15:30:09.704Z,19.72
2019-04-22T15:32:36.500Z,19.72
2019-04-22T15:35:04.986Z,19.46
2019-04-22T15:37:33.065Z,19.40
2019-04-22T15:40:00.639Z,19.34
2019-04-22T15:42:33.951Z,19.47
2019-04-22T15:44:58.038Z,19.40
2019-04-22T15:47:29.062Z,19.33
2019-04-22T15:49:58.245Z,19.19
2019-04-22T15:52:33.329Z,19.20
2019-04-22T15:54:54.117Z,19.26
2019-04-22T15:57:20.842Z,19.14
2019-04-22T16:00:06.820Z,19.11
2019-04-22T16:02:19.437Z,18.96
2019-04-22T16:04:48.491Z,19.15
2019-04-22T16:07:16.852Z,18.98
2019-04-22T16:09:43.685Z,18.88
2019-04-22T16:12:20.041Z,18.92
2019-04-22T16:14:45.392Z,18.81
2019-04-22T16:17:08.898Z,18.85
2019-04-22T16:19:37.017Z,18.91
2019-04-22T16:22:09.335Z,18.77
2019-04-22T16:24:50.269Z,18.76
2019-04-22T16:27:20.744Z,18.76
2019-04-22T16:29:47.525Z,18.75
2019-04-22T16:32:15.537Z,18.68
2019-04-22T16:34:42.600Z,18.60
2019-04-22T16:37:10.477Z,18.58
2019-04-22T16:39:38.851Z,18.52
2019-04-22T16:42:23.961Z,18.52
2019-04-22T16:44:40.720Z,18.47
2019-04-22T16:47:08.014Z,18.44
2019-04-22T16:49:35.065Z,18.33
2019-04-22T16:52:01.964Z,18.27
2019-04-22T16:54:28.795Z,18.24
2019-04-22T16:56:55.861Z,18.27
2019-04-22T16:59:24.212Z,18.19
2019-04-22T17:02:17.112Z,18.04
2019-04-22T17:05:11.450Z,18.03
2019-04-22T17:07:40.286Z,18.00
2019-04-22T17:10:13.526Z,17.89
2019-04-22T17:12:48.816Z,17.82
2019-04-22T17:15:12.207Z,17.76
2019-04-22T17:17:39.155Z,17.73
2019-04-22T17:20:07.215Z,17.69
2019-04-22T17:22:35.432Z,17.61
2019-04-22T17:25:02.693Z,17.51
2019-04-22T17:27:31.473Z,17.48
2019-04-22T17:29:58.985Z,17.43
2019-04-22T17:32:27.360Z,17.34
2019-04-22T17:34:54.679Z,17.28
2019-04-22T17:37:26.534Z,17.22
2019-04-22T17:40:09.768Z,17.16
2019-04-22T17:42:39.928Z,17.11
2019-04-22T17:45:31.763Z,17.05
2019-04-22T17:48:15.555Z,16.91
2019-04-22T17:50:57.789Z,16.82
2019-04-22T17:53:21.527Z,16.72
2019-04-22T17:55:49.213Z,16.66
2019-04-22T17:58:22.284Z,16.66
2019-04-22T18:00:43.425Z,16.53
2019-04-22T18:03:03.210Z,16.47
2019-04-22T18:05:32.215Z,16.48
2019-04-22T18:08:15.441Z,16.36
2019-04-22T18:10:43.981Z,16.25
2019-04-22T18:13:14.327Z,16.21
2019-04-22T18:15:38.949Z,16.18
2019-04-22T18:18:15.409Z,16.17
2019-04-22T18:20:30.789Z,15.99
2019-04-22T18:22:54.836Z,15.85
2019-04-22T18:25:27.704Z,15.96
2019-04-22T18:28:13.493Z,15.91
2019-04-22T18:30:24.302Z,15.70
2019-04-22T18:33:02.820Z,15.58
2019-04-22T18:35:26.937Z,15.72
2019-04-22T18:38:03.362Z,15.58
2019-04-22T18:40:30.956Z,15.49
2019-04-22T18:43:03.598Z,15.52
2019-04-22T18:45:39.720Z,15.47
2019-04-22T18:47:52.813Z,15.42
2019-04-22T18:50:45.190Z,15.27
2019-04-22T18:53:44.952Z,15.26
2019-04-22T18:56:13.933Z,15.00
2019-04-22T18:58:33.762Z,15.12
2019-04-22T19:00:48.171Z,15.00
2019-04-22T19:03:20.266Z,14.84
2019-04-22T19:06:09.540Z,14.83
2019-04-22T19:08:30.417Z,14.66
2019-04-22T19:11:08.377Z,14.29
2019-04-22T19:16:14.353Z,13.38
2019-04-22T19:18:35.036Z,13.16
2019-04-22T19:21:02.415Z,12.97
2019-04-22T19:23:28.079Z,12.77
2019-04-22T19:25:52.058Z,12.62
2019-04-22T19:28:40.416Z,12.64
2019-04-22T19:31:01.593Z,12.53
2019-04-22T19:33:24.615Z,12.51
2019-04-22T19:35:49.152Z,12.51
2019-04-22T19:38:13.279Z,12.48
2019-04-22T19:41:00.507Z,12.55
2019-04-22T19:43:22.889Z,12.32
2019-04-22T19:45:44.347Z,12.29
2019-04-22T19:48:23.381Z,12.17
2019-04-22T19:50:54.446Z,12.20
2019-04-22T19:53:21.226Z,12.20
2019-04-22T19:55:46.492Z,12.16
2019-04-22T19:58:15.041Z,12.13
2019-04-22T20:00:52.031Z,12.05
2019-04-22T20:03:57.868Z,12.26
2019-04-22T20:06:45.098Z,12.31
2019-04-22T20:09:20.602Z,12.33
2019-04-22T20:11:43.728Z,12.19
2019-04-22T20:14:12.748Z,12.04
2019-04-22T20:16:41.414Z,11.90
2019-04-22T20:19:12.364Z,12.07
2019-04-22T20:21:40.495Z,12.09
2019-04-22T20:23:57.160Z,11.93
2019-04-22T20:26:39.345Z,11.99
2019-04-22T20:29:06.720Z,11.93
2019-04-22T20:31:39.154Z,11.93
2019-04-22T20:34:12.959Z,12.00
2019-04-22T20:36:55.373Z,11.94
2019-04-22T20:38:59.301Z,11.91
2019-04-22T20:41:30.389Z,12.10
2019-04-22T20:43:56.679Z,12.15
2019-04-22T20:46:23.636Z,12.05
2019-04-22T20:48:54.964Z,11.96
2019-04-22T20:51:28.116Z,12.04
2019-04-22T20:53:56.529Z,11.94
2019-04-22T20:56:18.699Z,11.96
2019-04-22T20:58:54.657Z,12.00
2019-04-22T21:01:16.134Z,11.99
2019-04-22T21:03:42.033Z,12.01
2019-04-22T21:06:15.011Z,11.98
2019-04-22T21:08:47.569Z,11.90
2019-04-22T21:11:17.375Z,11.92
2019-04-22T21:13:40.984Z,11.89
2019-04-22T21:16:16.835Z,12.07
2019-04-22T21:18:37.493Z,12.20
2019-04-22T21:21:13.808Z,12.23
2019-04-22T21:23:33.896Z,12.35
2019-04-22T21:26:11.527Z,12.43
2019-04-22T21:28:38.351Z,12.33
2019-04-22T21:31:10.589Z,12.30
2019-04-22T21:33:40.837Z,12.36
2019-04-22T21:36:16.815Z,12.27
2019-04-22T21:38:39.864Z,12.30
2019-04-22T21:41:08.233Z,12.28
2019-04-22T21:43:40.485Z,12.32
2019-04-22T21:46:04.182Z,12.24
2019-04-22T21:48:36.965Z,12.34
2019-04-22T21:51:06.035Z,12.37
2019-04-22T21:53:41.662Z,12.23
2019-04-22T21:56:13.010Z,12.29
2019-04-22T21:58:31.802Z,12.11
2019-04-22T22:01:28.249Z,12.08
2019-04-22T22:03:50.644Z,12.08
2019-04-22T22:06:14.141Z,12.05
2019-04-22T22:08:55.083Z,12.00
2019-04-22T22:11:13.856Z,11.92
2019-04-22T22:13:48.831Z,11.82
2019-04-22T22:16:16.096Z,11.76
2019-04-22T22:18:42.001Z,11.66
2019-04-22T22:21:34.958Z,11.51
2019-04-22T22:23:43.646Z,11.63
2019-04-22T22:26:06.801Z,11.55
2019-04-22T22:28:51.410Z,11.49
2019-04-22T22:33:47.307Z,11.57
2019-04-22T22:36:08.657Z,11.55
2019-04-22T22:38:29.693Z,11.49
2019-04-22T22:40:48.012Z,11.41
2019-04-22T22:43:22.691Z,11.38
2019-04-22T22:45:54.453Z,11.37
2019-04-22T22:48:36.419Z,11.39
2019-04-22T22:50:58.522Z,11.26
2019-04-22T22:56:00.435Z,10.81
2019-04-22T22:58:34.532Z,10.93
2019-04-22T23:00:56.237Z,10.88
2019-04-22T23:06:00.142Z,10.81
2019-04-22T23:08:39.893Z,10.85
2019-04-22T23:11:00.986Z,10.73
2019-04-22T23:13:25.653Z,10.61
2019-04-22T23:15:44.368Z,10.61
2019-04-22T23:18:03.839Z,10.60
2019-04-22T23:20:36.107Z,10.68
2019-04-22T23:23:23.904Z,10.53
2019-04-22T23:25:54.972Z,10.57
2019-04-22T23:28:37.209Z,10.56
2019-04-22T23:31:17.512Z,10.52
2019-04-22T23:33:49.814Z,10.61
2019-04-22T23:36:36.976Z,10.57
2019-04-22T23:39:17.073Z,10.56
2019-04-22T23:41:46.268Z,10.61
2019-04-22T23:46:48.927Z,10.59
2019-04-22T23:49:11.707Z,10.59
2019-04-22T23:51:55.150Z,10.60
2019-04-22T23:54:18.638Z,10.64
2019-04-22T23:56:42.273Z,10.50
2019-04-22T23:59:35.534Z,10.64
